sensor_id;sensor_type;location;lat;lon;timestamp;P1;durP1;ratioP1;P2;durP2;ratioP2
5742;SDS011;2896;53.500;10.020;2022-08-11T00:00:50;9.00;;;3.53;;
5742;SDS011;2896;53.500;10.020;2022-08-11T00:03:17;3.60;;;3.30;;
5742;SDS011;2896;53.500;10.020;2022-08-11T00:05:46;3.87;;;3.57;;
5742;SDS011;2896;53.500;10.020;2022-08-11T00:08:19;4.40;;;3.30;;
5742;SDS011;2896;53.500;10.020;2022-08-11T00:10:51;3.10;;;2.97;;
5742;SDS011;2896;53.500;10.020;2022-08-11T00:13:20;3.63;;;3.23;;
5742;SDS011;2896;53.500;10.020;2022-08-11T00:15:48;4.73;;;4.33;;
5742;SDS011;2896;53.500;10.020;2022-08-11T00:18:15;3.50;;;3.30;;
5742;SDS011;2896;53.500;10.020;2022-08-11T00:20:42;3.87;;;3.60;;
5742;SDS011;2896;53.500;10.020;2022-08-11T00:23:12;5.70;;;3.20;;
5742;SDS011;2896;53.500;10.020;2022-08-11T00:25:43;3.17;;;2.97;;
5742;SDS011;2896;53.500;10.020;2022-08-11T00:28:25;3.33;;;3.13;;
5742;SDS011;2896;53.500;10.020;2022-08-11T00:30:53;3.83;;;3.37;;
5742;SDS011;2896;53.500;10.020;2022-08-11T00:33:22;6.10;;;3.23;;
5742;SDS011;2896;53.500;10.020;2022-08-11T00:35:57;2.67;;;2.57;;
5742;SDS011;2896;53.500;10.020;2022-08-11T00:38:29;2.97;;;2.77;;
5742;SDS011;2896;53.500;10.020;2022-08-11T00:41:00;2.90;;;2.80;;
5742;SDS011;2896;53.500;10.020;2022-08-11T00:43:39;3.10;;;2.90;;
5742;SDS011;2896;53.500;10.020;2022-08-11T00:46:17;3.23;;;3.03;;
5742;SDS011;2896;53.500;10.020;2022-08-11T00:48:56;2.73;;;2.53;;
5742;SDS011;2896;53.500;10.020;2022-08-11T00:51:33;3.43;;;3.13;;
5742;SDS011;2896;53.500;10.020;2022-08-11T00:54:14;3.30;;;3.10;;
5742;SDS011;2896;53.500;10.020;2022-08-11T01:00:20;3.00;;;2.90;;
5742;SDS011;2896;53.500;10.020;2022-08-11T01:03:10;3.77;;;3.40;;
5742;SDS011;2896;53.500;10.020;2022-08-11T01:09:07;2.97;;;2.80;;
5742;SDS011;2896;53.500;10.020;2022-08-11T01:11:52;3.00;;;2.90;;
5742;SDS011;2896;53.500;10.020;2022-08-11T01:14:39;3.00;;;2.90;;
5742;SDS011;2896;53.500;10.020;2022-08-11T01:17:47;3.30;;;3.00;;
5742;SDS011;2896;53.500;10.020;2022-08-11T01:27:01;3.67;;;3.40;;
5742;SDS011;2896;53.500;10.020;2022-08-11T01:33:01;3.10;;;2.90;;
5742;SDS011;2896;53.500;10.020;2022-08-11T01:35:59;3.40;;;3.10;;
5742;SDS011;2896;53.500;10.020;2022-08-11T01:38:54;3.67;;;3.53;;
5742;SDS011;2896;53.500;10.020;2022-08-11T01:42:17;3.03;;;2.93;;
5742;SDS011;2896;53.500;10.020;2022-08-11T01:45:29;5.03;;;3.43;;
5742;SDS011;2896;53.500;10.020;2022-08-11T01:48:03;3.37;;;3.17;;
5742;SDS011;2896;53.500;10.020;2022-08-11T01:50:44;2.93;;;2.83;;
5742;SDS011;2896;53.500;10.020;2022-08-11T01:53:25;3.33;;;3.17;;
5742;SDS011;2896;53.500;10.020;2022-08-11T01:56:00;3.50;;;3.20;;
5742;SDS011;2896;53.500;10.020;2022-08-11T01:58:41;3.30;;;3.10;;
5742;SDS011;2896;53.500;10.020;2022-08-11T02:01:14;6.00;;;3.03;;
5742;SDS011;2896;53.500;10.020;2022-08-11T02:03:53;3.80;;;3.50;;
5742;SDS011;2896;53.500;10.020;2022-08-11T02:06:25;3.40;;;3.30;;
5742;SDS011;2896;53.500;10.020;2022-08-11T02:09:23;3.70;;;3.50;;
5742;SDS011;2896;53.500;10.020;2022-08-11T02:12:00;3.90;;;3.60;;
5742;SDS011;2896;53.500;10.020;2022-08-11T02:14:36;5.20;;;3.30;;
5742;SDS011;2896;53.500;10.020;2022-08-11T02:17:11;3.63;;;3.43;;
5742;SDS011;2896;53.500;10.020;2022-08-11T02:19:44;4.30;;;4.00;;
5742;SDS011;2896;53.500;10.020;2022-08-11T02:22:38;4.17;;;3.30;;
5742;SDS011;2896;53.500;10.020;2022-08-11T02:25:35;3.83;;;3.67;;
5742;SDS011;2896;53.500;10.020;2022-08-11T02:28:06;4.27;;;3.90;;
5742;SDS011;2896;53.500;10.020;2022-08-11T02:30:45;3.17;;;3.07;;
5742;SDS011;2896;53.500;10.020;2022-08-11T02:33:43;3.07;;;2.97;;
5742;SDS011;2896;53.500;10.020;2022-08-11T02:36:16;3.60;;;3.30;;
5742;SDS011;2896;53.500;10.020;2022-08-11T02:38:48;4.20;;;3.90;;
5742;SDS011;2896;53.500;10.020;2022-08-11T02:41:20;5.03;;;3.87;;
5742;SDS011;2896;53.500;10.020;2022-08-11T02:44:11;3.03;;;2.93;;
5742;SDS011;2896;53.500;10.020;2022-08-11T02:46:50;3.67;;;3.47;;
5742;SDS011;2896;53.500;10.020;2022-08-11T02:49:28;5.27;;;3.50;;
5742;SDS011;2896;53.500;10.020;2022-08-11T02:52:30;3.33;;;3.13;;
5742;SDS011;2896;53.500;10.020;2022-08-11T02:55:17;2.97;;;2.87;;
5742;SDS011;2896;53.500;10.020;2022-08-11T02:57:50;4.07;;;3.77;;
5742;SDS011;2896;53.500;10.020;2022-08-11T03:00:22;3.80;;;3.60;;
5742;SDS011;2896;53.500;10.020;2022-08-11T03:02:59;4.00;;;3.60;;
5742;SDS011;2896;53.500;10.020;2022-08-11T03:05:37;3.70;;;3.50;;
5742;SDS011;2896;53.500;10.020;2022-08-11T03:08:21;2.87;;;2.77;;
5742;SDS011;2896;53.500;10.020;2022-08-11T03:10:59;3.37;;;3.17;;
5742;SDS011;2896;53.500;10.020;2022-08-11T03:13:51;4.87;;;3.87;;
5742;SDS011;2896;53.500;10.020;2022-08-11T03:16:53;3.97;;;3.70;;
5742;SDS011;2896;53.500;10.020;2022-08-11T03:19:25;3.80;;;3.20;;
5742;SDS011;2896;53.500;10.020;2022-08-11T03:22:04;5.43;;;3.67;;
5742;SDS011;2896;53.500;10.020;2022-08-11T03:24:48;3.73;;;3.53;;
5742;SDS011;2896;53.500;10.020;2022-08-11T03:27:25;3.80;;;3.60;;
5742;SDS011;2896;53.500;10.020;2022-08-11T03:30:03;3.87;;;3.50;;
5742;SDS011;2896;53.500;10.020;2022-08-11T03:32:34;3.30;;;3.10;;
5742;SDS011;2896;53.500;10.020;2022-08-11T03:35:07;4.40;;;4.00;;
5742;SDS011;2896;53.500;10.020;2022-08-11T03:37:40;4.67;;;3.53;;
5742;SDS011;2896;53.500;10.020;2022-08-11T03:40:34;4.00;;;3.70;;
5742;SDS011;2896;53.500;10.020;2022-08-11T03:43:29;2.90;;;2.80;;
5742;SDS011;2896;53.500;10.020;2022-08-11T03:46:11;3.90;;;3.63;;
5742;SDS011;2896;53.500;10.020;2022-08-11T03:48:44;4.17;;;3.90;;
5742;SDS011;2896;53.500;10.020;2022-08-11T03:51:21;4.67;;;3.40;;
5742;SDS011;2896;53.500;10.020;2022-08-11T03:54:09;8.70;;;3.77;;
5742;SDS011;2896;53.500;10.020;2022-08-11T03:56:56;4.40;;;3.77;;
5742;SDS011;2896;53.500;10.020;2022-08-11T03:59:55;4.33;;;3.67;;
5742;SDS011;2896;53.500;10.020;2022-08-11T04:02:46;3.63;;;3.43;;
5742;SDS011;2896;53.500;10.020;2022-08-11T04:05:48;4.07;;;3.87;;
5742;SDS011;2896;53.500;10.020;2022-08-11T04:08:53;4.30;;;4.00;;
5742;SDS011;2896;53.500;10.020;2022-08-11T04:11:45;4.00;;;3.80;;
5742;SDS011;2896;53.500;10.020;2022-08-11T04:14:46;3.73;;;3.50;;
5742;SDS011;2896;53.500;10.020;2022-08-11T04:17:53;3.70;;;3.50;;
5742;SDS011;2896;53.500;10.020;2022-08-11T04:20:50;3.97;;;3.77;;
5742;SDS011;2896;53.500;10.020;2022-08-11T04:23:37;4.20;;;3.90;;
5742;SDS011;2896;53.500;10.020;2022-08-11T04:26:49;4.03;;;3.80;;
5742;SDS011;2896;53.500;10.020;2022-08-11T04:29:34;4.33;;;3.90;;
5742;SDS011;2896;53.500;10.020;2022-08-11T04:32:17;5.77;;;4.20;;
5742;SDS011;2896;53.500;10.020;2022-08-11T04:35:02;4.87;;;4.47;;
5742;SDS011;2896;53.500;10.020;2022-08-11T04:37:46;4.60;;;4.30;;
5742;SDS011;2896;53.500;10.020;2022-08-11T04:43:31;4.97;;;4.30;;
5742;SDS011;2896;53.500;10.020;2022-08-11T04:46:27;3.47;;;3.37;;
5742;SDS011;2896;53.500;10.020;2022-08-11T04:49:22;5.03;;;4.30;;
5742;SDS011;2896;53.500;10.020;2022-08-11T04:52:36;4.03;;;3.83;;
5742;SDS011;2896;53.500;10.020;2022-08-11T04:55:43;5.03;;;4.63;;
5742;SDS011;2896;53.500;10.020;2022-08-11T04:58:43;5.33;;;4.50;;
5742;SDS011;2896;53.500;10.020;2022-08-11T05:02:07;4.70;;;4.47;;
5742;SDS011;2896;53.500;10.020;2022-08-11T05:04:57;5.30;;;4.87;;
5742;SDS011;2896;53.500;10.020;2022-08-11T05:11:02;5.67;;;5.17;;
5742;SDS011;2896;53.500;10.020;2022-08-11T05:13:45;9.37;;;6.20;;
5742;SDS011;2896;53.500;10.020;2022-08-11T05:16:32;11.63;;;5.30;;
5742;SDS011;2896;53.500;10.020;2022-08-11T05:19:30;6.10;;;5.33;;
5742;SDS011;2896;53.500;10.020;2022-08-11T05:22:16;6.27;;;5.60;;
5742;SDS011;2896;53.500;10.020;2022-08-11T05:25:03;6.40;;;5.63;;
5742;SDS011;2896;53.500;10.020;2022-08-11T05:27:52;8.30;;;5.70;;
5742;SDS011;2896;53.500;10.020;2022-08-11T05:30:44;10.53;;;6.20;;
5742;SDS011;2896;53.500;10.020;2022-08-11T05:33:31;8.00;;;5.83;;
5742;SDS011;2896;53.500;10.020;2022-08-11T05:36:20;5.37;;;4.97;;
5742;SDS011;2896;53.500;10.020;2022-08-11T05:38:53;12.80;;;6.53;;
5742;SDS011;2896;53.500;10.020;2022-08-11T05:41:40;7.90;;;6.13;;
5742;SDS011;2896;53.500;10.020;2022-08-11T05:44:26;6.30;;;5.70;;
5742;SDS011;2896;53.500;10.020;2022-08-11T05:47:19;5.30;;;4.80;;
5742;SDS011;2896;53.500;10.020;2022-08-11T05:50:06;6.17;;;5.20;;
5742;SDS011;2896;53.500;10.020;2022-08-11T05:52:52;5.37;;;4.87;;
5742;SDS011;2896;53.500;10.020;2022-08-11T05:55:38;13.97;;;7.10;;
5742;SDS011;2896;53.500;10.020;2022-08-11T05:58:24;6.53;;;6.00;;
5742;SDS011;2896;53.500;10.020;2022-08-11T06:00:53;9.43;;;6.43;;
5742;SDS011;2896;53.500;10.020;2022-08-11T06:03:21;7.67;;;5.57;;
5742;SDS011;2896;53.500;10.020;2022-08-11T06:05:52;5.30;;;4.80;;
5742;SDS011;2896;53.500;10.020;2022-08-11T06:08:26;10.40;;;6.67;;
5742;SDS011;2896;53.500;10.020;2022-08-11T06:10:58;8.50;;;5.50;;
5742;SDS011;2896;53.500;10.020;2022-08-11T06:13:26;6.33;;;5.47;;
5742;SDS011;2896;53.500;10.020;2022-08-11T06:15:54;5.50;;;5.10;;
5742;SDS011;2896;53.500;10.020;2022-08-11T06:18:22;8.03;;;5.20;;
5742;SDS011;2896;53.500;10.020;2022-08-11T06:20:51;6.90;;;5.50;;
5742;SDS011;2896;53.500;10.020;2022-08-11T06:23:19;10.20;;;5.87;;
5742;SDS011;2896;53.500;10.020;2022-08-11T06:25:47;8.43;;;5.40;;
5742;SDS011;2896;53.500;10.020;2022-08-11T06:28:16;5.60;;;5.10;;
5742;SDS011;2896;53.500;10.020;2022-08-11T06:30:46;5.60;;;5.10;;
5742;SDS011;2896;53.500;10.020;2022-08-11T06:33:16;12.67;;;5.60;;
5742;SDS011;2896;53.500;10.020;2022-08-11T06:35:47;6.80;;;5.70;;
5742;SDS011;2896;53.500;10.020;2022-08-11T06:41:22;4.33;;;4.00;;
5742;SDS011;2896;53.500;10.020;2022-08-11T06:43:59;4.70;;;4.27;;
5742;SDS011;2896;53.500;10.020;2022-08-11T06:46:34;5.07;;;4.57;;
5742;SDS011;2896;53.500;10.020;2022-08-11T06:49:06;5.23;;;4.10;;
5742;SDS011;2896;53.500;10.020;2022-08-11T06:51:54;4.77;;;4.30;;
5742;SDS011;2896;53.500;10.020;2022-08-11T06:54:22;4.20;;;3.90;;
5742;SDS011;2896;53.500;10.020;2022-08-11T06:56:50;5.23;;;4.17;;
5742;SDS011;2896;53.500;10.020;2022-08-11T06:59:35;7.13;;;3.70;;
5742;SDS011;2896;53.500;10.020;2022-08-11T07:02:21;4.00;;;3.43;;
5742;SDS011;2896;53.500;10.020;2022-08-11T07:04:55;4.53;;;3.80;;
5742;SDS011;2896;53.500;10.020;2022-08-11T07:10:42;3.20;;;3.10;;
5742;SDS011;2896;53.500;10.020;2022-08-11T07:13:38;6.03;;;3.13;;
5742;SDS011;2896;53.500;10.020;2022-08-11T07:16:25;3.93;;;3.27;;
5742;SDS011;2896;53.500;10.020;2022-08-11T07:18:54;3.10;;;3.00;;
5742;SDS011;2896;53.500;10.020;2022-08-11T07:21:45;4.17;;;3.80;;
5742;SDS011;2896;53.500;10.020;2022-08-11T07:24:31;4.87;;;2.90;;
5742;SDS011;2896;53.500;10.020;2022-08-11T07:27:19;8.60;;;3.70;;
5742;SDS011;2896;53.500;10.020;2022-08-11T07:30:06;7.23;;;3.30;;
5742;SDS011;2896;53.500;10.020;2022-08-11T07:32:36;4.23;;;3.57;;
5742;SDS011;2896;53.500;10.020;2022-08-11T07:35:10;5.20;;;3.57;;
5742;SDS011;2896;53.500;10.020;2022-08-11T07:37:41;7.70;;;3.30;;
5742;SDS011;2896;53.500;10.020;2022-08-11T07:40:12;4.30;;;3.03;;
5742;SDS011;2896;53.500;10.020;2022-08-11T07:42:39;3.97;;;3.53;;
5742;SDS011;2896;53.500;10.020;2022-08-11T07:45:10;5.27;;;3.20;;
5742;SDS011;2896;53.500;10.020;2022-08-11T07:47:56;3.73;;;3.43;;
5742;SDS011;2896;53.500;10.020;2022-08-11T07:50:40;4.40;;;2.90;;
5742;SDS011;2896;53.500;10.020;2022-08-11T07:53:27;9.53;;;3.50;;
5742;SDS011;2896;53.500;10.020;2022-08-11T07:55:57;3.07;;;2.70;;
5742;SDS011;2896;53.500;10.020;2022-08-11T07:58:26;5.83;;;3.50;;
5742;SDS011;2896;53.500;10.020;2022-08-11T08:01:11;15.63;;;3.27;;
5742;SDS011;2896;53.500;10.020;2022-08-11T08:04:01;2.87;;;2.73;;
5742;SDS011;2896;53.500;10.020;2022-08-11T08:06:49;3.93;;;2.73;;
5742;SDS011;2896;53.500;10.020;2022-08-11T08:09:35;5.10;;;2.67;;
5742;SDS011;2896;53.500;10.020;2022-08-11T08:12:21;2.73;;;2.53;;
5742;SDS011;2896;53.500;10.020;2022-08-11T08:15:07;7.63;;;2.70;;
5742;SDS011;2896;53.500;10.020;2022-08-11T08:17:54;11.20;;;2.90;;
5742;SDS011;2896;53.500;10.020;2022-08-11T08:20:24;14.93;;;2.63;;
5742;SDS011;2896;53.500;10.020;2022-08-11T08:22:54;8.23;;;2.50;;
5742;SDS011;2896;53.500;10.020;2022-08-11T08:25:24;13.50;;;2.73;;
5742;SDS011;2896;53.500;10.020;2022-08-11T08:27:53;5.17;;;2.93;;
5742;SDS011;2896;53.500;10.020;2022-08-11T08:30:21;4.87;;;2.40;;
5742;SDS011;2896;53.500;10.020;2022-08-11T08:33:07;9.83;;;3.00;;
5742;SDS011;2896;53.500;10.020;2022-08-11T08:35:35;14.23;;;2.70;;
5742;SDS011;2896;53.500;10.020;2022-08-11T08:38:02;3.20;;;2.90;;
5742;SDS011;2896;53.500;10.020;2022-08-11T08:40:30;9.43;;;2.67;;
5742;SDS011;2896;53.500;10.020;2022-08-11T08:42:58;8.43;;;2.70;;
5742;SDS011;2896;53.500;10.020;2022-08-11T08:45:29;4.83;;;2.30;;
5742;SDS011;2896;53.500;10.020;2022-08-11T08:48:02;3.20;;;2.90;;
5742;SDS011;2896;53.500;10.020;2022-08-11T08:50:32;4.30;;;2.27;;
5742;SDS011;2896;53.500;10.020;2022-08-11T08:53:19;6.80;;;2.87;;
5742;SDS011;2896;53.500;10.020;2022-08-11T08:55:49;3.57;;;2.87;;
5742;SDS011;2896;53.500;10.020;2022-08-11T08:58:20;11.07;;;2.93;;
5742;SDS011;2896;53.500;10.020;2022-08-11T09:00:50;3.57;;;3.10;;
5742;SDS011;2896;53.500;10.020;2022-08-11T09:03:19;3.93;;;2.87;;
5742;SDS011;2896;53.500;10.020;2022-08-11T09:05:47;8.33;;;2.97;;
5742;SDS011;2896;53.500;10.020;2022-08-11T09:08:15;12.23;;;2.63;;
5742;SDS011;2896;53.500;10.020;2022-08-11T09:10:44;3.40;;;2.90;;
5742;SDS011;2896;53.500;10.020;2022-08-11T09:13:13;10.00;;;2.90;;
5742;SDS011;2896;53.500;10.020;2022-08-11T09:15:40;2.77;;;2.57;;
5742;SDS011;2896;53.500;10.020;2022-08-11T09:18:07;5.77;;;2.67;;
5742;SDS011;2896;53.500;10.020;2022-08-11T09:20:35;6.40;;;3.40;;
5742;SDS011;2896;53.500;10.020;2022-08-11T09:23:04;2.27;;;2.17;;
5742;SDS011;2896;53.500;10.020;2022-08-11T09:25:50;15.80;;;2.70;;
5742;SDS011;2896;53.500;10.020;2022-08-11T09:28:39;6.13;;;2.77;;
5742;SDS011;2896;53.500;10.020;2022-08-11T09:31:08;4.90;;;2.30;;
5742;SDS011;2896;53.500;10.020;2022-08-11T09:33:36;5.20;;;2.63;;
5742;SDS011;2896;53.500;10.020;2022-08-11T09:36:05;4.80;;;2.57;;
5742;SDS011;2896;53.500;10.020;2022-08-11T09:38:47;6.23;;;3.17;;
5742;SDS011;2896;53.500;10.020;2022-08-11T09:41:32;4.47;;;2.30;;
5742;SDS011;2896;53.500;10.020;2022-08-11T09:44:01;7.67;;;2.60;;
5742;SDS011;2896;53.500;10.020;2022-08-11T09:46:47;2.50;;;2.40;;
5742;SDS011;2896;53.500;10.020;2022-08-11T09:49:17;3.20;;;2.37;;
5742;SDS011;2896;53.500;10.020;2022-08-11T09:51:46;6.70;;;2.47;;
5742;SDS011;2896;53.500;10.020;2022-08-11T09:54:14;3.80;;;1.93;;
5742;SDS011;2896;53.500;10.020;2022-08-11T09:56:41;11.00;;;2.27;;
5742;SDS011;2896;53.500;10.020;2022-08-11T09:59:28;3.17;;;2.13;;
5742;SDS011;2896;53.500;10.020;2022-08-11T10:01:56;6.60;;;2.60;;
5742;SDS011;2896;53.500;10.020;2022-08-11T10:04:26;7.63;;;2.60;;
5742;SDS011;2896;53.500;10.020;2022-08-11T10:06:59;2.60;;;2.33;;
5742;SDS011;2896;53.500;10.020;2022-08-11T10:09:27;9.40;;;2.37;;
5742;SDS011;2896;53.500;10.020;2022-08-11T10:11:59;3.50;;;2.03;;
5742;SDS011;2896;53.500;10.020;2022-08-11T10:14:29;5.70;;;2.00;;
5742;SDS011;2896;53.500;10.020;2022-08-11T10:17:15;3.10;;;1.90;;
5742;SDS011;2896;53.500;10.020;2022-08-11T10:19:45;1.70;;;1.60;;
5742;SDS011;2896;53.500;10.020;2022-08-11T10:22:13;2.50;;;2.10;;
5742;SDS011;2896;53.500;10.020;2022-08-11T10:25:00;5.10;;;1.93;;
5742;SDS011;2896;53.500;10.020;2022-08-11T10:27:45;5.43;;;1.63;;
5742;SDS011;2896;53.500;10.020;2022-08-11T10:30:15;3.60;;;1.70;;
5742;SDS011;2896;53.500;10.020;2022-08-11T10:32:59;3.03;;;2.10;;
5742;SDS011;2896;53.500;10.020;2022-08-11T10:35:45;5.10;;;2.00;;
5742;SDS011;2896;53.500;10.020;2022-08-11T10:38:12;5.50;;;2.33;;
5742;SDS011;2896;53.500;10.020;2022-08-11T10:40:40;7.00;;;1.70;;
5742;SDS011;2896;53.500;10.020;2022-08-11T10:43:31;4.73;;;1.90;;
5742;SDS011;2896;53.500;10.020;2022-08-11T10:45:59;4.43;;;1.97;;
5742;SDS011;2896;53.500;10.020;2022-08-11T10:48:58;9.30;;;2.00;;
5742;SDS011;2896;53.500;10.020;2022-08-11T10:51:25;8.33;;;2.03;;
5742;SDS011;2896;53.500;10.020;2022-08-11T10:54:10;7.83;;;1.87;;
5742;SDS011;2896;53.500;10.020;2022-08-11T10:56:57;1.93;;;1.83;;
5742;SDS011;2896;53.500;10.020;2022-08-11T10:59:43;5.50;;;2.30;;
5742;SDS011;2896;53.500;10.020;2022-08-11T11:02:12;4.37;;;1.80;;
5742;SDS011;2896;53.500;10.020;2022-08-11T11:04:43;2.00;;;1.90;;
5742;SDS011;2896;53.500;10.020;2022-08-11T11:07:21;4.83;;;2.00;;
5742;SDS011;2896;53.500;10.020;2022-08-11T11:09:54;2.07;;;1.97;;
5742;SDS011;2896;53.500;10.020;2022-08-11T11:12:24;4.67;;;1.73;;
5742;SDS011;2896;53.500;10.020;2022-08-11T11:15:12;1.73;;;1.63;;
5742;SDS011;2896;53.500;10.020;2022-08-11T11:18:01;2.13;;;1.60;;
5742;SDS011;2896;53.500;10.020;2022-08-11T11:20:32;5.80;;;2.00;;
5742;SDS011;2896;53.500;10.020;2022-08-11T11:23:04;4.27;;;2.20;;
5742;SDS011;2896;53.500;10.020;2022-08-11T11:25:35;3.60;;;1.87;;
5742;SDS011;2896;53.500;10.020;2022-08-11T11:28:33;8.10;;;2.10;;
5742;SDS011;2896;53.500;10.020;2022-08-11T11:31:12;3.23;;;1.60;;
5742;SDS011;2896;53.500;10.020;2022-08-11T11:34:14;4.03;;;1.80;;
5742;SDS011;2896;53.500;10.020;2022-08-11T11:36:49;6.30;;;2.00;;
5742;SDS011;2896;53.500;10.020;2022-08-11T11:39:19;1.83;;;1.67;;
5742;SDS011;2896;53.500;10.020;2022-08-11T11:41:48;2.50;;;1.90;;
5742;SDS011;2896;53.500;10.020;2022-08-11T11:44:17;2.90;;;1.60;;
5742;SDS011;2896;53.500;10.020;2022-08-11T11:46:46;5.50;;;1.70;;
5742;SDS011;2896;53.500;10.020;2022-08-11T11:49:15;7.63;;;1.60;;
5742;SDS011;2896;53.500;10.020;2022-08-11T11:51:43;9.23;;;1.70;;
5742;SDS011;2896;53.500;10.020;2022-08-11T11:54:12;3.93;;;1.73;;
5742;SDS011;2896;53.500;10.020;2022-08-11T11:56:39;1.63;;;1.60;;
5742;SDS011;2896;53.500;10.020;2022-08-11T11:59:07;4.67;;;1.40;;
5742;SDS011;2896;53.500;10.020;2022-08-11T12:01:52;5.50;;;1.60;;
5742;SDS011;2896;53.500;10.020;2022-08-11T12:04:22;4.77;;;1.33;;
5742;SDS011;2896;53.500;10.020;2022-08-11T12:06:49;1.73;;;1.63;;
5742;SDS011;2896;53.500;10.020;2022-08-11T12:09:37;2.30;;;1.87;;
5742;SDS011;2896;53.500;10.020;2022-08-11T12:12:05;9.97;;;1.50;;
5742;SDS011;2896;53.500;10.020;2022-08-11T12:14:50;1.67;;;1.57;;
5742;SDS011;2896;53.500;10.020;2022-08-11T12:17:18;6.60;;;1.43;;
5742;SDS011;2896;53.500;10.020;2022-08-11T12:19:47;1.43;;;1.30;;
5742;SDS011;2896;53.500;10.020;2022-08-11T12:22:14;1.60;;;1.50;;
5742;SDS011;2896;53.500;10.020;2022-08-11T12:24:59;5.00;;;1.63;;
5742;SDS011;2896;53.500;10.020;2022-08-11T12:27:44;2.30;;;1.80;;
5742;SDS011;2896;53.500;10.020;2022-08-11T12:30:11;1.30;;;1.30;;
5742;SDS011;2896;53.500;10.020;2022-08-11T12:32:39;3.87;;;1.30;;
5742;SDS011;2896;53.500;10.020;2022-08-11T12:35:09;3.87;;;1.20;;
5742;SDS011;2896;53.500;10.020;2022-08-11T12:37:39;1.80;;;1.17;;
5742;SDS011;2896;53.500;10.020;2022-08-11T12:40:10;5.00;;;1.77;;
5742;SDS011;2896;53.500;10.020;2022-08-11T12:42:57;4.10;;;1.40;;
5742;SDS011;2896;53.500;10.020;2022-08-11T12:45:45;2.17;;;1.97;;
5742;SDS011;2896;53.500;10.020;2022-08-11T12:48:14;1.50;;;1.40;;
5742;SDS011;2896;53.500;10.020;2022-08-11T12:51:04;1.30;;;1.20;;
5742;SDS011;2896;53.500;10.020;2022-08-11T12:53:52;6.90;;;1.67;;
5742;SDS011;2896;53.500;10.020;2022-08-11T12:56:22;8.33;;;1.60;;
5742;SDS011;2896;53.500;10.020;2022-08-11T12:59:08;5.90;;;1.73;;
5742;SDS011;2896;53.500;10.020;2022-08-11T13:01:53;1.70;;;1.60;;
5742;SDS011;2896;53.500;10.020;2022-08-11T13:04:38;2.40;;;1.50;;
5742;SDS011;2896;53.500;10.020;2022-08-11T13:07:25;1.50;;;1.30;;
5742;SDS011;2896;53.500;10.020;2022-08-11T13:09:53;4.40;;;1.57;;
5742;SDS011;2896;53.500;10.020;2022-08-11T13:12:21;2.77;;;1.57;;
5742;SDS011;2896;53.500;10.020;2022-08-11T13:15:06;1.63;;;1.37;;
5742;SDS011;2896;53.500;10.020;2022-08-11T13:17:36;3.83;;;1.63;;
5742;SDS011;2896;53.500;10.020;2022-08-11T13:20:04;4.27;;;1.77;;
5742;SDS011;2896;53.500;10.020;2022-08-11T13:22:35;7.50;;;1.40;;
5742;SDS011;2896;53.500;10.020;2022-08-11T13:25:02;2.90;;;1.30;;
5742;SDS011;2896;53.500;10.020;2022-08-11T13:27:30;4.90;;;1.60;;
5742;SDS011;2896;53.500;10.020;2022-08-11T13:29:58;1.77;;;1.67;;
5742;SDS011;2896;53.500;10.020;2022-08-11T13:32:43;3.13;;;1.50;;
5742;SDS011;2896;53.500;10.020;2022-08-11T13:35:11;5.40;;;1.40;;
5742;SDS011;2896;53.500;10.020;2022-08-11T13:37:40;8.17;;;1.30;;
5742;SDS011;2896;53.500;10.020;2022-08-11T13:40:10;9.20;;;1.40;;
5742;SDS011;2896;53.500;10.020;2022-08-11T13:42:37;2.53;;;1.50;;
5742;SDS011;2896;53.500;10.020;2022-08-11T13:45:05;2.60;;;1.40;;
5742;SDS011;2896;53.500;10.020;2022-08-11T13:47:33;3.63;;;1.80;;
5742;SDS011;2896;53.500;10.020;2022-08-11T13:50:02;7.50;;;1.47;;
5742;SDS011;2896;53.500;10.020;2022-08-11T13:52:30;1.30;;;1.20;;
5742;SDS011;2896;53.500;10.020;2022-08-11T13:54:59;4.30;;;1.30;;
5742;SDS011;2896;53.500;10.020;2022-08-11T13:57:27;3.97;;;1.40;;
5742;SDS011;2896;53.500;10.020;2022-08-11T13:59:57;3.70;;;1.43;;
5742;SDS011;2896;53.500;10.020;2022-08-11T14:02:34;3.17;;;1.87;;
5742;SDS011;2896;53.500;10.020;2022-08-11T14:05:04;2.27;;;1.40;;
5742;SDS011;2896;53.500;10.020;2022-08-11T14:07:33;5.67;;;1.30;;
5742;SDS011;2896;53.500;10.020;2022-08-11T14:10:04;2.60;;;1.50;;
5742;SDS011;2896;53.500;10.020;2022-08-11T14:12:34;5.13;;;1.40;;
5742;SDS011;2896;53.500;10.020;2022-08-11T14:15:21;2.20;;;1.10;;
5742;SDS011;2896;53.500;10.020;2022-08-11T14:17:51;8.23;;;1.77;;
5742;SDS011;2896;53.500;10.020;2022-08-11T14:20:20;1.70;;;1.10;;
5742;SDS011;2896;53.500;10.020;2022-08-11T14:22:48;7.10;;;1.47;;
5742;SDS011;2896;53.500;10.020;2022-08-11T14:25:17;4.10;;;1.27;;
5742;SDS011;2896;53.500;10.020;2022-08-11T14:27:43;10.93;;;1.90;;
5742;SDS011;2896;53.500;10.020;2022-08-11T14:30:13;1.40;;;1.30;;
5742;SDS011;2896;53.500;10.020;2022-08-11T14:32:54;5.27;;;1.30;;
5742;SDS011;2896;53.500;10.020;2022-08-11T14:35:22;1.20;;;1.20;;
5742;SDS011;2896;53.500;10.020;2022-08-11T14:37:50;1.00;;;1.00;;
5742;SDS011;2896;53.500;10.020;2022-08-11T14:40:18;2.40;;;1.13;;
5742;SDS011;2896;53.500;10.020;2022-08-11T14:42:59;3.30;;;1.30;;
5742;SDS011;2896;53.500;10.020;2022-08-11T14:45:44;1.87;;;1.50;;
5742;SDS011;2896;53.500;10.020;2022-08-11T14:48:28;7.93;;;1.70;;
5742;SDS011;2896;53.500;10.020;2022-08-11T14:50:55;6.20;;;1.60;;
5742;SDS011;2896;53.500;10.020;2022-08-11T14:53:22;1.27;;;1.17;;
5742;SDS011;2896;53.500;10.020;2022-08-11T14:55:51;4.57;;;1.30;;
5742;SDS011;2896;53.500;10.020;2022-08-11T14:58:36;3.20;;;1.20;;
5742;SDS011;2896;53.500;10.020;2022-08-11T15:01:03;3.07;;;1.50;;
5742;SDS011;2896;53.500;10.020;2022-08-11T15:03:51;5.60;;;1.80;;
5742;SDS011;2896;53.500;10.020;2022-08-11T15:06:17;4.00;;;1.40;;
5742;SDS011;2896;53.500;10.020;2022-08-11T15:08:44;7.30;;;1.57;;
5742;SDS011;2896;53.500;10.020;2022-08-11T15:11:22;5.70;;;1.63;;
5742;SDS011;2896;53.500;10.020;2022-08-11T15:14:22;1.20;;;1.20;;
5742;SDS011;2896;53.500;10.020;2022-08-11T15:17:03;11.10;;;2.10;;
5742;SDS011;2896;53.500;10.020;2022-08-11T15:19:33;8.10;;;1.90;;
5742;SDS011;2896;53.500;10.020;2022-08-11T15:22:22;6.53;;;2.17;;
5742;SDS011;2896;53.500;10.020;2022-08-11T15:25:06;5.33;;;1.50;;
5742;SDS011;2896;53.500;10.020;2022-08-11T15:27:34;1.60;;;1.40;;
5742;SDS011;2896;53.500;10.020;2022-08-11T15:30:18;2.40;;;1.47;;
5742;SDS011;2896;53.500;10.020;2022-08-11T15:33:05;5.90;;;1.70;;
5742;SDS011;2896;53.500;10.020;2022-08-11T15:35:52;4.93;;;1.30;;
5742;SDS011;2896;53.500;10.020;2022-08-11T15:38:39;3.27;;;1.37;;
5742;SDS011;2896;53.500;10.020;2022-08-11T15:41:09;12.80;;;2.10;;
5742;SDS011;2896;53.500;10.020;2022-08-11T15:44:00;8.93;;;1.90;;
5742;SDS011;2896;53.500;10.020;2022-08-11T15:46:49;4.20;;;1.70;;
5742;SDS011;2896;53.500;10.020;2022-08-11T15:49:21;13.77;;;2.43;;
5742;SDS011;2896;53.500;10.020;2022-08-11T15:51:54;10.93;;;1.70;;
5742;SDS011;2896;53.500;10.020;2022-08-11T15:54:26;3.03;;;1.80;;
5742;SDS011;2896;53.500;10.020;2022-08-11T15:56:57;5.13;;;1.90;;
5742;SDS011;2896;53.500;10.020;2022-08-11T15:59:28;3.10;;;1.77;;
5742;SDS011;2896;53.500;10.020;2022-08-11T16:02:15;2.10;;;1.60;;
5742;SDS011;2896;53.500;10.020;2022-08-11T16:05:05;26.27;;;1.80;;
5742;SDS011;2896;53.500;10.020;2022-08-11T16:07:34;5.23;;;1.87;;
5742;SDS011;2896;53.500;10.020;2022-08-11T16:10:03;5.23;;;1.80;;
5742;SDS011;2896;53.500;10.020;2022-08-11T16:12:34;4.60;;;2.57;;
5742;SDS011;2896;53.500;10.020;2022-08-11T16:15:08;2.70;;;2.50;;
5742;SDS011;2896;53.500;10.020;2022-08-11T16:17:55;7.80;;;2.60;;
5742;SDS011;2896;53.500;10.020;2022-08-11T16:20:26;11.47;;;2.97;;
5742;SDS011;2896;53.500;10.020;2022-08-11T16:22:55;10.13;;;3.07;;
5742;SDS011;2896;53.500;10.020;2022-08-11T16:25:24;3.63;;;2.50;;
5742;SDS011;2896;53.500;10.020;2022-08-11T16:27:54;6.43;;;2.33;;
5742;SDS011;2896;53.500;10.020;2022-08-11T16:30:25;4.20;;;2.40;;
5742;SDS011;2896;53.500;10.020;2022-08-11T16:32:55;4.57;;;2.20;;
5742;SDS011;2896;53.500;10.020;2022-08-11T16:35:26;6.30;;;2.30;;